KPOB/POB METAR and TAF weather

Enter ICAO airport designator
Station Type Date Time Source
KPOB METAR 2019/08/26 06:56 UTC NOAA

KPOB 260656Z AUTO 05005KT 10SM OVC060 20/17 A3008 RMK AO2 SLP188 T02000170 $


Station Type Date Time Source
KPOB Decoded METAR 2019/08/26 06:56 UTC NOAA

Station name not available
Aug 26, 2019 - 02:56 AM EDT / 2019.08.26 0656 UTC
Wind: from the NE (050 degrees) at 6 MPH (5 KT):0
Visibility: 10 mile(s):0
Sky conditions: overcast
Temperature: 68.0 F (20.0 C)
Dew Point: 62.6 F (17.0 C)
Relative Humidity: 82%
Pressure (altimeter): 30.08 in. Hg (1018 hPa)
ob: KPOB 260656Z AUTO 05005KT 10SM OVC060 20/17 A3008 RMK AO2 SLP188 T02000170
cycle: 7

Station Type Date Time Source
KPOB TAF 2019/08/26 01:08 UTC NOAA

TAF KPOB 260100Z 2601/2707 03006KT 9999 BKN020 OVC050 QNH3002INS
BECMG 2605/2606 03006KT 9999 SCT015 OVC050 QNH3003INS
BECMG 2610/2611 03006KT 9999 FEW010 SCT050 QNH3004INS TX27/2618Z TN19/2606Z

Example: see airport list